Weather observations for the past three days for
Palm Beach County Park Airport
Imperial (Metric)
Date Time (edt) Wind (mph) Vis. (mi.) Weather Sky Cond. Temperature (ºF) Relative Humidity Wind Chill (°F) Heat Index (°F) Pressure Precipitation (in)
Air Dwpt 6 hour altimeter (in) sea level (mb) 1 hr 3 hr 6 hr
Max. Min.
07 16:15 SE 12 10.00 Fair CLR 87.8 65.3 47% 90 29.95 0.0
07 15:55 SE 10 10.00 Fair CLR 88 65.5 47% 90 29.96 0.0
07 15:35 SE 10 10.00 Fair CLR 87.3 65.3 48% 89 29.96 0.0
07 15:15 SE 9 10.00 Fair CLR 88.3 66 48% 91 29.97 0.0
07 14:55 SE 10 10.00 Fair CLR 88.2 66 48% 91 29.98 0.0
07 14:35 SE 10 10.00 Fair CLR 88 65.5 47% 90 29.98 0.0
07 14:15 SE 10 10.00 Fair CLR 87.8 66.6 49% 91 29.99 0.0
07 13:55 E 9 10.00 Fair CLR 87.4 66.7 89.6 75.6 50% 90 30 0.0
07 13:35 E 9 10.00 Fair CLR 87.8 67.6 51% 91 30 0.0
07 13:15 E 8 10.00 Fair CLR 87.3 66.9 51% 90 30.01 0.0
07 12:55 SE 10 10.00 Fair CLR 86.9 67.5 52% 90 30.01 0.0
07 12:35 SE 10 10.00 Fair CLR 88.2 67.3 50% 91 30.02 0.0
07 12:15 Calm 10.00 Fair CLR 88.2 59.5 38% 88 30.03 0.0
07 11:55 Calm 10.00 Partly Cloudy SCT040 87.1 58.6 38% 86 30.03 0.0
07 11:35 SW 5 10.00 Partly Cloudy SCT038 88 60.6 40% 88 30.04 0.0
07 11:15 SW 6 10.00 Fair CLR 86.9 62.6 44% 88 30.04 0.0
07 10:55 S 8 10.00 Fair CLR 86.4 63 46% 87 30.04 0.0
07 10:35 S 5 10.00 Fair CLR 85.1 63.9 49% 86 30.04 0.0
07 10:15 SW 8 10.00 Fair CLR 84.7 64.2 50% 86 30.04 0.0
07 09:55 SW 3 10.00 Fair CLR 83.5 66.4 56% 86 30.04 0.0
07 09:35 S 5 10.00 Fair CLR 82.8 66.9 59% 85 30.04 0.0
07 09:15 SW 6 10.00 Fair CLR 81.9 67.1 61% 84 30.04 0.0
07 08:55 SW 5 10.00 Fair CLR 80.8 66.9 63% 83 30.04 0.0
07 08:35 SW 3 10.00 Fair CLR 79 68 69% 81 30.04 0.0
07 08:15 Calm 10.00 Fair CLR 77 68.4 75% 79 30.04 0.0
07 07:55 Calm 10.00 Fair CLR 75.4 68.7 77 70.9 80% 76 30.04 0.0
07 07:35 Calm 10.00 Fair CLR 73.6 68.2 83% 30.03 0.0
07 07:15 Calm 10.00 Fair CLR 71.6 66 83% 30.02 0.0
07 06:55 Calm 10.00 Fair CLR 71.4 65.7 82% 30 0.0
07 06:35 Calm 10.00 Fair CLR 72.3 66.4 82% 30 0.0
07 06:15 Calm 10.00 Fair CLR 71.6 65.5 81% 29.99 0.0
07 05:55 SW 3 10.00 Fair CLR 71.1 64.6 80% 29.98 0.0
07 05:35 Calm 10.00 Fair CLR 72.1 65.3 79% 29.98 0.0
07 05:15 Calm 10.00 Fair CLR 73.4 66.2 78% 29.98 0.0
07 04:55 Calm 10.00 Fair CLR 73 65.8 78% 29.98 0.0
07 04:35 Calm 10.00 Fair CLR 73.9 65.8 76% 29.98 0.0
07 04:15 Calm 10.00 Fair CLR 73.6 65.8 77% 29.98 0.0
07 03:55 Calm 10.00 Fair CLR 72.5 64.6 76% 29.98 0.0
07 03:35 Calm 10.00 Fair CLR 72.5 64.4 76% 29.99 0.0
07 03:15 Calm 10.00 Fair CLR 72.7 64.4 75% 29.98 0.0
07 02:55 Calm 10.00 Fair CLR 72.5 64 75% 30 0.0
07 02:35 Calm 10.00 Fair CLR 73.4 62.8 70% 30 0.0
07 02:15 SE 3 10.00 Fair CLR 76.6 63.7 64% 78 30 0.0
07 01:55 E 5 10.00 Fair CLR 76.8 63.9 80.6 76.6 64% 79 30.01 0.0
07 01:35 SE 3 10.00 Fair CLR 77.5 63.5 62% 79 30.02 0.0
07 01:15 SE 6 10.00 Fair CLR 77.9 63 60% 80 30.02 0.0
07 00:55 E 6 10.00 Fair CLR 77.9 62.6 59% 80 30.03 0.0
07 00:35 E 5 10.00 Fair CLR 77.9 62.8 60% 80 30.03 0.0
07 00:15 SE 7 10.00 Fair CLR 77.9 62.6 59% 80 30.03 0.0
06 23:55 E 7 10.00 Fair CLR 78.3 63 59% 80 30.03 0.0
06 23:35 E 6 10.00 Fair CLR 78.4 63.5 60% 80 30.03 0.0
06 23:15 E 7 10.00 Fair CLR 79 63.5 59% 81 30.04 0.0
06 22:55 E 7 10.00 Fair CLR 78.8 63.7 60% 80 30.04 0.0
06 22:35 E 7 10.00 Fair CLR 79.2 64 60% 81 30.04 0.0
06 22:15 E 7 10.00 Fair CLR 78.8 63.7 60% 80 30.03 0.0
06 21:55 E 7 10.00 Fair CLR 79.2 63.5 59% 81 30.03 0.0
06 21:35 E 7 10.00 Fair CLR 79.2 62.6 57% 81 30.03 0.0
06 21:15 E 6 10.00 Fair CLR 79.7 62.6 56% 81 30.03 0.0
06 20:55 E 7 10.00 Fair CLR 79.7 62.8 56% 81 30.03 0.0
06 20:35 E 7 10.00 Fair CLR 79.9 61.9 54% 81 30.03 0.0
06 20:15 E 7 10.00 Fair CLR 80.4 61.2 52% 81 30.03 0.0
06 19:55 E 7 10.00 Fair CLR 80.8 60.8 86.2 80.8 51% 82 30.02 0.0
06 19:35 NE 7 10.00 Fair CLR 81.7 60.4 49% 82 30.02 0.0
06 19:15 E 6 10.00 Fair CLR 82.4 62.1 50% 83 30.02 0.0
06 18:55 E 9 10.00 Fair CLR 83.1 62.1 49% 84 30.02 0.0
06 18:35 NE 12 10.00 Fair CLR 83.3 61 47% 84 30.01 0.0
06 18:15 E 10 10.00 Fair CLR 83.5 61.5 48% 84 30.01 0.0
06 17:55 E 9 10.00 Fair CLR 84.4 60.6 45% 85 30.01 0.0
06 17:35 E 8 10.00 Fair CLR 84.6 59.4 43% 84 30.01 0.0
06 17:15 NE 8 10.00 Fair CLR 84.7 59.5 43% 85 30.01 0.0
06 16:55 NE 8 10.00 Fair CLR 85.1 61.5 45% 85 30.01 0.0
06 16:35 E 8 10.00 Fair CLR 85.3 59.7 42% 85 30.01 0.0
06 16:15 E 10 10.00 Fair CLR 85.5 60.6 43% 85 30.02 0.0
06 15:55 E 12 10.00 Fair CLR 85.6 60.6 43% 86 30.02 0.0
06 15:35 E 10 10.00 Fair CLR 85.5 61.2 44% 86 30.03 0.0
06 15:15 E 8 10.00 Fair CLR 85.3 61.3 45% 86 30.03 0.0
06 14:55 E 9 10.00 Fair CLR 86 60.3 42% 86 30.04 0.0
06 14:35 E 7 10.00 Fair CLR 86 63.9 48% 87 30.05 0.0
06 14:15 E 8 10.00 Fair CLR 86 61.2 43% 86 30.05 0.0
06 13:55 E 6 10.00 Fair CLR 85.5 61.2 86 79.5 44% 86 30.05 0.0
06 13:35 E 7 10.00 Fair CLR 84.7 64.6 51% 86 30.05 0.0
06 13:15 E 8 10.00 Fair CLR 85.3 66.4 53% 88 30.05 0.0
06 12:55 E 7 10.00 Fair CLR 85.1 66.6 54% 88 30.06 0.0
06 12:35 E 6 10.00 Fair CLR 84.6 65.8 54% 87 30.06 0.0
06 12:15 E 7 10.00 Fair CLR 84.2 66.2 55% 87 30.07 0.0
06 11:55 E 7 10.00 Fair CLR 84.2 66.2 55% 87 30.07 0.0
06 11:35 E 6 10.00 Fair CLR 83.7 66 55% 86 30.06 0.0
06 11:15 Calm 10.00 Fair CLR 83.1 65.8 56% 85 30.06 0.0
06 10:55 E 7 10.00 Fair CLR 83.5 66 56% 86 30.06 0.0
06 10:35 E 7 10.00 Fair CLR 82.8 66.9 59% 85 30.05 0.0
06 10:15 E 6 10.00 Partly Cloudy SCT020 81.9 66.9 61% 84 30.05 0.0
06 09:55 E 9 10.00 Partly Cloudy SCT020 81.3 67.1 62% 84 30.05 0.0
06 09:35 E 9 10.00 Partly Cloudy SCT020 81.1 67.3 63% 84 30.05 0.0
06 09:15 E 9 10.00 Partly Cloudy SCT020 81.1 67.3 63% 84 30.04 0.0
06 08:55 E 8 10.00 Partly Cloudy SCT019 80.4 67.5 65% 83 30.04 0.0
06 08:35 E 7 10.00 Mostly Cloudy BKN019 79.9 67.3 66% 82 30.04 0.0
06 08:15 E 8 10.00 Partly Cloudy SCT019 79.9 67.1 65% 82 30.03 0.0
06 07:55 E 6 10.00 Partly Cloudy SCT019 79.7 67.1 79.7 76.6 65% 82 30.03 0.0
06 07:35 E 6 10.00 Partly Cloudy SCT019 79.2 67.6 68% 81 30.03 0.0
06 07:15 E 3 10.00 Partly Cloudy SCT019 77.7 67.6 71% 80 30.02 0.0
06 06:55 E 5 10.00 Partly Cloudy SCT019 77 67.1 72% 79 30.01 0.0
06 06:35 E 5 10.00 Partly Cloudy SCT019 77 67.1 72% 79 30.01 0.0
06 06:15 E 3 10.00 Partly Cloudy SCT019 76.6 67.1 72% 78 30.01 0.0
06 05:55 E 3 10.00 Fair CLR 76.8 66.9 72% 79 30 0.0
06 05:35 E 5 10.00 Partly Cloudy SCT018 77 67.1 72% 79 30 0.0
06 05:15 E 3 10.00 Fair CLR 76.8 67.1 72% 79 30 0.0
06 04:55 E 3 10.00 Fair CLR 77 67.1 72% 79 29.99 0.0
06 04:35 E 5 10.00 Fair CLR 77 66.7 71% 79 30 0.0
06 04:15 E 5 10.00 Fair CLR 77.2 66.6 70% 79 30 0.0
06 03:55 E 5 10.00 Fair CLR 77.4 66.4 69% 79 30 0.0
06 03:35 E 5 10.00 Fair CLR 77.5 66.4 69% 79 29.99 0.0
06 03:15 E 6 10.00 Partly Cloudy SCT075 77.9 66.6 68% 80 29.99 0.0
06 02:55 E 7 10.00 Mostly Cloudy BKN075 77.9 66.2 67% 80 29.99 0.0
06 02:35 E 6 10.00 Mostly Cloudy BKN065 78.3 66.7 68% 80 30 0.0
06 02:15 E 7 10.00 Overcast SCT021 OVC065 78.4 66.4 67% 80 30 0.0
06 01:55 E 8 10.00 Mostly Cloudy SCT021 BKN065 78.4 66.4 79.2 78.1 67% 80 30.01 0.0
06 01:35 E 8 10.00 Mostly Cloudy SCT019 BKN065 78.4 66.9 68% 81 30.01 0.0
06 01:15 E 8 10.00 Fair CLR 78.3 67.1 69% 80 30.02 0.0
06 00:55 E 6 10.00 Fair CLR 78.1 66.2 67% 80 30.01 0.0
06 00:35 E 7 10.00 Partly Cloudy SCT020 78.4 65.8 65% 80 30.02 0.0
06 00:15 E 6 10.00 Mostly Cloudy SCT020 BKN026 BKN033 78.8 67.1 67% 81 30.03 0.0
05 23:55 E 8 10.00 Partly Cloudy SCT024 SCT033 78.8 66.2 65% 81 30.03 0.0
05 23:35 E 8 10.00 Mostly Cloudy BKN023 BKN031 79 66.7 66% 81 30.03 0.0
05 23:15 E 6 10.00 Partly Cloudy SCT021 SCT028 SCT033 78.6 66.6 67% 81 30.02 0.0
05 22:55 NE 9 10.00 Overcast BKN021 BKN028 OVC035 79.2 66.6 65% 81 30.02 0.0
05 22:35 NE 12 10.00 Mostly Cloudy BKN021 BKN028 BKN038 78.8 66.4 66% 81 30.01 0.0
05 22:15 E 6 10.00 Partly Cloudy SCT021 SCT028 78.8 66.2 65% 81 30.01 0.0
05 21:55 E 9 10.00 Partly Cloudy SCT021 SCT028 78.8 66.4 66% 81 30 0.0
05 21:35 E 9 10.00 Partly Cloudy SCT021 78.8 66.2 65% 81 29.99 0.0
05 21:15 NE 8 10.00 Fair CLR 78.8 65.8 65% 81 29.99 0.0
05 20:55 E 9 10.00 Fair CLR 78.8 65.3 63% 81 29.99 0.0
05 20:35 NE 9 10.00 Partly Cloudy SCT022 SCT027 SCT035 78.8 65.3 63% 81 29.99 0.0
05 20:15 E 9 10.00 Partly Cloudy SCT024 SCT032 78.8 65.8 65% 81 29.99 0.0
05 19:55 NE 10 10.00 Partly Cloudy SCT022 SCT032 79 65.5 82.9 79 63% 81 29.98 0.0
05 19:35 NE 12 10.00 Partly Cloudy SCT022 SCT029 79.2 65.8 64% 81 29.98 0.0
05 19:15 NE 12 10.00 Partly Cloudy SCT022 SCT031 79.3 65.3 62% 81 29.98 0.0
05 18:55 NE 12 G 18 10.00 Partly Cloudy SCT028 79.7 65.1 61% 82 29.98 0.0
05 18:35 NE 12 G 16 10.00 Mostly Cloudy SCT023 BKN029 79.7 65.5 62% 82 29.98 0.0
05 18:15 NE 10 G 18 10.00 Mostly Cloudy BKN023 BKN029 BKN090 79.7 65.7 62% 82 29.97 0.0
05 17:55 NE 12 G 17 10.00 Mostly Cloudy BKN021 BKN090 80.8 66.2 61% 83 29.97 0.0
05 17:35 NE 13 10.00 Mostly Cloudy BKN023 81.1 66.2 61% 83 29.96 0.0
05 17:15 NE 14 10.00 Partly Cloudy SCT023 82.2 65.7 57% 84 29.96 0.0
05 16:55 NE 14 G 18 10.00 Mostly Cloudy BKN023 81.5 66.2 60% 84 29.96 0.0
05 16:35 NE 13 G 16 10.00 Partly Cloudy SCT023 82.2 66 58% 84 29.96 0.0
05 16:15 NE 9 G 17 10.00 Partly Cloudy SCT025 82.9 66.4 57% 85 29.97 0.0
05 15:55 NE 10 10.00 Fair CLR 82.8 66 57% 85 29.97 0.0
05 15:35 NE 12 10.00 Fair CLR 82.4 64.9 56% 84 29.98 0.0
05 15:15 NE 12 G 18 10.00 Fair CLR 82.6 64.6 55% 84 29.98 0.0
05 14:55 NE 12 10.00 Fair CLR 82.6 66.4 58% 85 29.98 0.0
05 14:35 NE 12 10.00 Partly Cloudy SCT019 82 67.3 61% 85 29.99 0.0
05 14:15 NE 13 G 17 10.00 Partly Cloudy SCT019 82.2 67.5 61% 85 29.99 0.0
05 13:55 NE 12 G 16 10.00 Partly Cloudy SCT019 82 67.5 83.3 77.2 61% 85 30 0.0
05 13:35 NE 13 G 17 10.00 Partly Cloudy SCT017 81.3 67.3 62% 84 30 0.0
05 13:15 NE 12 10.00 Mostly Cloudy BKN017 BKN023 81.9 68.2 63% 85 30 0.0
05 12:55 NE 12 G 17 10.00 Mostly Cloudy SCT017 BKN024 BKN028 81.5 68.2 64% 84 30 0.0
05 12:35 NE 10 10.00 Mostly Cloudy SCT022 BKN029 82.4 67.5 61% 85 30.01 0.0
05 12:15 NE 9 10.00 Partly Cloudy SCT024 82.9 67.1 59% 86 30.01 0.0
05 11:55 NE 9 10.00 Partly Cloudy SCT024 82.4 66.2 58% 85 30 0.0
05 11:35 E 10 10.00 Partly Cloudy SCT024 SCT034 82.2 65.8 58% 84 30 0.0
05 11:15 NE 10 10.00 Partly Cloudy SCT022 SCT031 81.9 65.3 57% 84 30 0.0
05 10:55 NE 10 10.00 Partly Cloudy SCT020 81.3 66.9 62% 84 30 0.0
05 10:35 E 8 10.00 Partly Cloudy SCT020 SCT050 81 66.7 62% 83 30 0.0
05 10:15 E 9 G 16 10.00 Mostly Cloudy SCT019 SCT028 BKN050 80.1 66.6 64% 82 30 0.0
05 09:55 NE 13 G 17 10.00 Mostly Cloudy SCT019 SCT027 BKN035 80.6 67.3 64% 83 29.99 0.0
05 09:35 NE 8 G 16 10.00 Mostly Cloudy SCT017 BKN026 BKN034 79.3 66.9 66% 82 30 0.0
05 09:15 NE 10 10.00 Mostly Cloudy SCT017 BKN021 BKN026 79.2 67.8 68% 82 29.99 0.0
05 08:55 NE 12 G 18 10.00 Mostly Cloudy BKN017 BKN024 79 67.6 68% 81 29.99 0.0
05 08:35 NE 8 10.00 Partly Cloudy SCT019 78.6 67.3 68% 81 29.97 0.0
05 08:15 E 8 10.00 Partly Cloudy SCT015 SCT021 SCT027 77.9 67.8 71% 80 29.97 0.0
05 07:55 E 8 10.00 Overcast SCT015 BKN023 OVC035 76.6 68 76.6 74.3 75% 78 29.97 0.0
05 07:35 NE 7 10.00 Overcast BKN015 BKN023 OVC034 76.5 67.5 74% 78 29.96 0.0
05 07:15 NE 7 10.00 Mostly Cloudy SCT015 BKN020 BKN024 76.1 67.1 74% 78 29.96 0.0
05 06:55 E 5 10.00 Partly Cloudy SCT017 75.6 66.2 73% 77 29.95 0.0
05 06:35 E 6 10.00 Partly Cloudy SCT018 SCT026 75.6 66.2 73% 77 29.95 0.0
05 06:15 E 7 10.00 Partly Cloudy SCT018 SCT028 75.6 66.2 73% 77 29.95 0.0
05 05:55 NE 5 10.00 Fair CLR 75.2 66.2 74% 77 29.94 0.0
05 05:35 E 7 10.00 Partly Cloudy SCT075 74.7 66 75% 29.93 0.0
05 05:15 E 6 10.00 Partly Cloudy SCT075 75.2 66.6 75% 76 29.93 0.0
05 04:55 E 7 10.00 Partly Cloudy SCT020 SCT033 SCT044 75 66.9 76% 76 29.93 0.0
05 04:35 NE 7 10.00 Overcast SCT014 BKN026 OVC039 75.4 67.1 76% 77 29.93 0.0
05 04:15 NE 10 10.00 Overcast SCT014 BKN020 OVC028 75.7 67.3 75% 77 29.93 0.0
05 03:55 NE 10 10.00 Overcast BKN014 BKN022 OVC037 75.6 67.1 75% 77 29.93 0.0
05 03:35 NE 8 10.00 Overcast SCT014 OVC037 75.4 67.1 76% 77 29.94 0.0
05 03:15 NE 9 10.00 Overcast BKN014 BKN036 OVC046 75.2 66.7 75% 76 29.94 0.0
05 02:55 NE 9 10.00 Mostly Cloudy SCT014 BKN044 BKN075 74.8 66.6 76% 29.94 0.0
05 02:35 NE 8 10.00 Mostly Cloudy SCT034 BKN044 74.5 66.7 77% 29.95 0.0
05 02:15 NE 7 10.00 Partly Cloudy SCT011 SCT034 74.3 67.1 78% 29.96 0.0
05 01:55 NE 6 10.00 Mostly Cloudy SCT011 SCT041 BKN075 74.5 67.3 77.5 73.6 78% 29.96 0.0
05 01:35 E 8 10.00 Overcast BKN035 BKN055 OVC075 73.9 66.7 78% 29.97 0.0
05 01:15 NE 6 7.00 Overcast SCT010 SCT021 OVC031 73.8 66.7 79% 29.98 0.0
05 00:55 E 8 2.50 Overcast SCT010 BKN020 OVC043 73.9 67.1 79% 29.98 0.0
05 00:35 E 10 G 17 5.00 Overcast SCT010 OVC023 75 66.7 76% 76 29.98 0.0
05 00:15 NE 10 10.00 Overcast BKN023 OVC030 77 64.6 66% 79 29.98 0.0
04 23:55 NE 12 G 17 10.00 Overcast BKN026 OVC032 77.4 64.2 64% 79 29.98 0.0
04 23:35 NE 10 10.00 Overcast BKN026 OVC032 77.4 64.4 64% 79 29.99 0.0
04 23:15 NE 8 10.00 Overcast SCT022 OVC032 77.4 64.4 64% 79 29.98 0.0
04 22:55 NE 9 10.00 Mostly Cloudy SCT025 BKN030 BKN036 77.2 63.9 64% 79 29.98 0.0
04 22:35 NE 12 G 16 10.00 Partly Cloudy SCT025 SCT044 77.4 63.7 63% 79 29.99 0.0
04 22:15 E 9 G 17 10.00 Overcast SCT023 SCT031 OVC042 77.5 63.7 62% 79 29.98 0.0
04 21:55 E 12 10.00 Overcast SCT023 BKN033 OVC065 77.5 63.9 63% 79 29.99 0.0
04 21:35 NE 14 G 18 10.00 Overcast SCT025 SCT033 OVC065 77.4 63.5 62% 79 29.98 0.0
04 21:15 E 10 G 18 10.00 Overcast SCT025 BKN031 OVC065 77.4 63.5 62% 79 29.97 0.0
04 20:55 E 13 G 18 10.00 Mostly Cloudy SCT025 SCT030 BKN034 77.4 62.6 61% 79 29.97 0.0
04 20:35 NE 12 10.00 Mostly Cloudy SCT025 SCT030 BKN048 77.4 63.1 62% 79 29.96 0.0
04 20:15 E 10 10.00 Overcast SCT027 BKN041 OVC055 77.5 63 61% 79 29.96 0.0
04 19:55 NE 13 G 17 10.00 Overcast BKN027 OVC041 77.5 62.8 81.1 77.5 61% 79 29.96 0.0
04 19:35 E 12 10.00 Overcast SCT027 BKN034 OVC041 77.9 62.8 60% 80 29.96 0.0
04 19:15 NE 14 G 18 10.00 Overcast BKN027 OVC034 77.5 62.6 60% 79 29.95 0.0
04 18:55 NE 14 10.00 Mostly Cloudy SCT025 BKN032 BKN042 77.7 62.6 60% 79 29.95 0.0
04 18:35 NE 14 G 22 10.00 Overcast SCT027 SCT038 OVC060 78.4 62.4 58% 80 29.95 0.0
04 18:15 E 13 G 18 10.00 Overcast SCT027 BKN037 OVC060 79.3 62.6 57% 81 29.96 0.0
04 17:55 NE 14 10.00 Overcast SCT025 BKN030 OVC040 78.8 62.6 58% 80 29.95 0.0
04 17:35 NE 16 G 22 10.00 Mostly Cloudy BKN025 BKN037 BKN044 79.7 62.8 56% 81 29.95 0.0
04 17:15 NE 16 G 20 10.00 Mostly Cloudy SCT025 SCT032 BKN120 80.1 63.1 56% 81 29.95 0.0
04 16:55 E 14 G 17 10.00 Overcast BKN030 BKN040 OVC120 79.2 62.8 57% 81 29.96 0.0
04 16:35 NE 14 G 23 10.00 Overcast SCT025 BKN030 OVC050 78.8 62.6 58% 80 29.96 0.0
Date Time (edt) Wind (mph) Vis. (mi.) Weather Sky Cond. Air Dwpt Max. Min. Relative Humidity Wind Chill (°F) Heat Index (°F) altimeter (in) sea level (mb) 1 hr 3 hr 6 hr
6 hour
Temperature (ºF) Pressure Precipitation (in)